Date,TemperatureHighF,TemperatureAvgF,TemperatureLowF,DewpointHighF,DewpointAvgF,DewpointLowF,HumidityHigh,HumidityAvg,HumidityLow,PressureMaxIn,PressureMinIn,WindSpeedMaxMPH,WindSpeedAvgMPH,GustSpeedMaxMPH,PrecipitationSumIn
2013-1-1,36.1,27.4,18.5,18.7,11.7,3.9,61,50,38,30.03,29.94,7,-9,11,0.00
2013-1-2,43.5,28.1,14.5,13.2,6.8,0.8,52,39,28,29.97,29.88,6,-35,7,0.00
2013-1-3,40.4,28.3,19.4,6.2,1.5,-99.9,44,31,21,30.06,29.88,11,-12,20,0.00
2013-1-4,42.8,28.4,18.4,8.7,-0.3,-99.9,39,29,20,30.09,30.00,6,-12,9,0.00
2013-1-5,49.3,33.7,21.7,11.0,-0.2,-99.9,32,24,19,30.15,30.03,5,-27,6,0.00
2013-1-6,49.5,40.2,33.8,9.5,5.5,-1.0,30,24,19,30.03,24.78,16,-34,20,0.00
2013-1-7,49.1,38.3,28.1,15.6,7.7,-99.9,36,28,21,29.83,29.74,10,-44,13,0.00
2013-1-8,54.0,36.9,21.2,11.4,5.2,-99.9,37,27,18,30.00,29.80,5,-56,9,0.00
2013-1-9,33.4,31.7,29.1,12.8,10.9,7.6,44,39,34,30.00,30.00,4,-23,5,0.00
2013-1-10,44.5,38.8,29.3,22.2,15.6,10.1,54,40,25,29.71,29.62,22,-32,29,0.00
2013-1-11,33.8,25.0,19.0,11.6,-0.2,-99.9,51,33,22,29.83,29.65,11,-30,15,0.00
2013-1-12,31.8,22.1,13.2,8.7,-1.4,-7.4,43,31,25,29.83,29.71,7,-52,9,0.00
2013-1-13,32.6,21.5,11.1,6.0,-3.4,-99.9,37,29,23,29.85,29.77,8,-16,10,0.00
2013-1-14,31.0,18.2,7.0,5.7,-5.3,-99.9,43,31,24,29.97,29.74,8,-50,9,0.00
2013-1-15,36.3,21.8,8.0,3.3,-4.9,-15.3,34,27,22,30.15,29.94,6,-51,8,0.00
2013-1-16,47.8,31.1,17.6,13.5,3.1,-99.9,41,30,22,30.15,30.06,5,-126,6,0.00
2013-1-17,52.3,32.0,23.0,16.5,-9.6,-99.9,44,25,21,30.15,30.06,6,-208,8,0.00
2013-1-18,54.0,34.4,24.6,16.5,-2.1,-99.9,43,27,20,30.12,30.03,5,-281,6,0.00
2013-1-19,55.9,38.0,25.2,17.1,7.7,-99.9,44,29,19,30.15,30.03,6,-321,6,0.00
2013-1-20,57.2,39.9,26.1,13.9,6.3,-1.3,34,24,17,30.09,30.00,5,-244,6,0.00
2013-1-21,59.8,41.4,24.6,14.9,6.4,-1.8,32,23,17,30.09,29.97,7,-262,10,0.00
2013-1-22,61.9,44.8,28.9,15.6,6.1,-99.9,23,20,16,30.12,30.03,6,-277,8,0.00
2013-1-23,63.6,49.6,36.0,16.6,9.3,0.8,22,19,16,30.15,30.06,10,-266,12,0.00
2013-1-24,53.8,48.8,44.2,44.0,30.1,11.0,90,56,21,30.12,30.03,10,-537,11,0.04
2013-1-25,61.0,50.4,43.0,45.1,39.3,32.1,86,68,35,30.09,29.94,7,-422,9,0.21
2013-1-26,48.9,47.0,44.7,48.2,46.3,44.1,100,98,87,29.94,29.77,13,-608,18,1.03
2013-1-27,52.6,45.0,38.5,48.5,42.8,32.2,100,92,68,29.88,24.72,12,-347,23,0.13
2013-1-28,42.4,34.4,21.7,36.8,25.8,17.1,91,72,41,29.77,29.68,11,1,14,0.13
2013-1-29,39.5,28.8,17.4,20.4,15.1,8.5,80,57,38,29.94,29.74,11,-10,17,0.12
2013-1-30,45.9,34.7,24.3,23.9,19.3,14.2,69,53,37,30.06,29.94,8,-58,11,0.00
2013-1-31,54.1,39.9,28.5,30.2,22.7,18.6,75,52,26,30.06,30.00,6,-90,8,0.00
2013-2-1,58.1,42.9,31.5,26.3,18.6,12.8,57,40,17,30.09,30.00,5,-97,7,0.00
2013-2-2,60.2,46.4,32.0,25.8,19.1,15.0,53,35,19,30.12,30.06,6,-109,7,0.00
2013-2-3,52.7,46.1,38.7,37.4,28.2,20.4,73,51,35,30.09,29.91,7,-16,10,0.00
2013-2-4,58.1,44.2,32.4,36.3,26.3,18.8,81,53,26,30.00,29.91,6,-47,9,0.00
2013-2-5,61.6,46.0,35.4,27.4,20.9,15.4,53,39,19,29.97,29.85,9,-44,13,0.00
2013-2-6,57.7,45.3,36.5,33.0,25.9,21.6,65,48,26,29.94,29.80,8,-33,10,0.00
2013-2-7,57.6,44.3,33.3,31.1,24.2,20.8,70,48,25,30.00,29.83,9,-42,12,0.00
2013-2-8,48.8,41.2,30.6,32.4,18.5,0.3,75,42,19,29.85,29.62,23,-24,32,0.00
2013-2-9,38.6,30.8,23.6,25.2,20.4,15.2,78,64,47,29.83,29.56,11,4,14,0.08
2013-2-10,37.9,29.2,21.7,26.4,19.9,13.1,88,67,46,29.83,29.74,14,-7,17,0.00
2013-2-11,37.5,27.7,19.4,26.5,17.2,9.4,93,65,35,29.91,29.77,6,-30,10,0.05
2013-2-12,41.2,29.6,20.1,16.9,11.1,-99.9,61,45,29,30.06,29.91,6,-40,8,0.00
2013-2-13,49.8,39.5,23.7,18.5,14.8,7.7,49,36,27,30.03,29.97,6,-257,9,0.00
2013-2-14,56.1,40.2,27.1,23.5,15.6,-99.9,53,38,20,30.06,24.86,7,-590,8,0.00
2013-2-15,60.1,42.9,28.8,23.1,12.4,-0.5,46,30,17,30.18,30.03,0,-999,0,0.00
2013-2-16,63.4,45.2,26.4,17.7,8.0,-1.5,32,21,16,30.18,29.94,0,-999,0,0.00
2013-2-17,59.8,44.0,36.0,14.9,6.7,2.2,24,21,17,29.94,29.83,0,-999,0,0.00
2013-2-18,46.9,40.3,35.1,9.1,7.4,4.9,30,26,19,29.85,29.83,0,-999,0,0.00
2013-2-19,51.8,42.8,34.4,21.0,9.6,2.4,50,26,18,29.83,24.54,18,-524,29,0.00
2013-2-20,37.4,32.2,26.4,31.5,23.3,16.6,94,69,48,29.65,29.44,13,5,17,0.00
2013-2-21,38.8,31.5,26.6,29.5,24.8,16.5,99,77,43,29.77,29.65,12,5,16,0.12
2013-2-22,43.0,31.8,20.5,21.8,13.5,9.0,74,48,28,29.91,29.77,6,3,10,0.00
2013-2-23,43.2,27.9,23.9,16.6,10.9,8.0,51,45,29,29.88,29.80,7,3,10,0.00
2013-2-26,46.3,40.1,32.3,7.3,3.3,-1.4,23,21,19,29.94,29.85,17,7,27,0.00
2013-2-27,51.0,36.9,20.7,10.2,2.6,-5.9,30,22,19,30.09,29.94,9,3,12,0.00
2013-2-28,56.1,44.3,27.9,12.5,6.1,-1.8,23,20,17,30.18,30.03,8,3,11,0.00
2013-3-1,65.8,47.6,27.7,20.6,10.1,-1.2,31,22,15,30.24,30.15,10,3,12,0.00
2013-3-2,70.3,52.5,35.6,25.1,17.0,9.3,41,26,14,30.24,30.03,8,3,13,0.00
2013-3-3,61.2,50.2,40.0,19.7,15.7,11.9,33,26,19,30.03,24.72,9,-77,12,0.00
2013-3-4,60.8,50.0,38.0,25.2,19.5,13.3,46,30,21,30.00,29.77,8,3,13,0.00
2013-3-5,64.7,49.9,36.9,30.9,20.1,15.0,55,33,18,30.03,29.91,12,1,17,0.00
2013-3-6,64.6,51.1,38.4,26.4,19.7,12.7,47,30,17,29.97,29.85,13,6,18,0.00
2013-3-7,60.8,50.4,37.9,23.1,18.1,12.5,42,28,19,29.88,29.77,15,7,23,0.00
2013-3-8,47.4,38.4,29.5,39.3,29.1,19.7,97,72,33,29.77,29.62,18,-19,26,0.17
2013-3-9,38.5,33.3,29.5,32.8,29.9,25.7,96,87,75,29.94,29.71,8,3,10,0.20
2013-3-10,53.9,40.0,28.2,31.4,23.8,14.8,98,58,26,30.06,29.91,9,-18,12,0.09
2013-3-11,61.8,45.3,29.5,25.3,18.5,13.2,49,36,16,30.06,29.97,8,-12,11,0.00
2013-3-12,69.0,51.4,34.6,28.6,20.9,16.0,52,33,17,30.09,29.97,6,-1,8,0.00
2013-3-13,47.3,46.4,44.2,22.0,21.7,20.8,39,37,36,30.09,30.06,5,3,6,0.00
2013-3-14,76.9,67.6,53.8,28.8,21.5,15.4,27,18,13,30.15,30.06,8,-153,11,0.00
2013-3-15,79.5,62.2,50.1,28.2,21.1,12.6,29,21,12,30.12,29.91,11,4,16,0.00
2013-3-16,75.6,59.0,48.5,26.4,20.7,16.1,32,24,13,29.91,29.80,11,5,18,0.00
2013-3-17,59.1,48.6,45.1,21.8,20.0,16.3,37,32,19,29.85,29.77,4,3,6,0.00
2013-3-22,63.4,48.9,36.4,16.5,8.2,-2.0,22,19,16,29.77,29.71,12,4,15,0.00
2013-3-23,56.0,43.9,32.0,12.3,5.3,-3.9,23,20,17,29.94,29.74,15,5,22,0.00
2013-3-24,62.7,47.0,30.6,15.9,7.4,-2.1,23,19,16,29.97,29.83,9,4,14,0.00
2013-3-25,67.7,51.5,34.7,18.4,9.5,-0.3,22,18,15,29.97,29.85,11,3,16,0.00
2013-3-26,69.3,56.9,42.8,19.7,12.6,4.5,20,17,15,29.91,29.83,14,6,32,0.00
2013-3-27,68.7,55.6,43.2,19.5,12.8,5.5,25,18,15,29.94,29.83,15,6,24,0.00
2013-3-28,70.4,57.1,43.0,23.5,16.6,8.1,31,21,14,30.00,29.88,14,5,19,0.00
2013-3-29,75.5,59.7,44.0,27.2,19.1,10.1,38,22,13,30.09,29.97,8,4,15,0.00
2013-3-30,74.6,57.4,46.9,25.5,19.0,10.3,32,23,16,30.03,29.97,14,3,19,0.00
2013-3-31,76.7,60.2,44.4,26.7,21.1,11.7,38,24,13,30.00,29.91,14,5,24,0.00
2013-4-1,70.8,55.6,41.2,27.0,19.2,4.6,52,26,14,29.94,29.85,14,6,21,0.00
2013-4-2,68.0,51.7,38.5,21.3,15.4,-99.9,35,25,15,29.91,29.83,10,4,15,0.00
2013-4-3,72.1,56.7,41.0,27.0,18.9,9.8,41,25,14,30.03,29.91,7,3,12,0.00
2013-4-4,74.7,60.3,44.7,26.8,18.1,11.6,31,20,13,30.06,29.94,11,4,15,0.00
2013-4-5,75.7,61.9,48.7,26.8,18.7,11.6,28,19,13,29.94,29.88,17,5,23,0.00
2013-4-6,76.0,59.2,44.1,26.1,20.5,-99.9,38,24,15,29.94,29.85,11,4,15,0.04
2013-4-7,76.0,59.2,44.5,26.4,21.1,15.8,37,24,14,29.88,29.74,10,4,17,0.00
2013-4-8,60.2,48.6,37.0,31.5,25.8,20.4,73,42,24,29.71,29.44,28,9,35,0.17
2013-4-9,52.2,41.7,34.5,33.7,22.4,11.8,92,51,26,29.80,29.47,10,4,15,0.00
2013-4-10,59.5,45.0,30.6,20.3,14.4,6.8,54,31,17,29.94,29.77,10,4,18,0.00
2013-4-11,44.1,41.4,39.9,12.5,11.2,9.4,32,29,25,29.88,29.85,3,1,4,0.00
2013-4-12,74.4,64.3,42.8,22.2,18.2,12.9,29,17,13,29.85,29.77,12,3,15,0.00
2013-4-13,74.3,61.6,45.1,25.3,18.6,12.9,30,20,13,29.85,29.74,16,7,22,0.00
2013-4-14,72.8,59.8,48.0,24.3,20.4,14.3,31,22,16,29.77,29.68,14,7,24,0.00
2013-4-15,67.0,56.9,46.5,31.9,25.8,20.5,45,31,20,29.74,29.65,18,11,27,0.00
2013-4-16,63.1,52.2,39.6,32.2,21.8,7.6,58,33,16,29.71,29.65,21,7,36,0.00
2013-4-17,55.1,44.0,34.7,21.7,11.6,-0.3,51,28,18,29.94,29.68,10,4,21,0.00
2013-4-18,61.3,45.0,28.8,15.5,7.4,-1.1,28,21,16,30.06,29.91,9,3,15,0.00
2013-4-19,69.9,51.7,29.8,19.9,9.8,-1.4,23,18,14,30.12,29.91,8,3,10,0.00
2013-4-20,72.8,57.4,40.6,20.9,12.8,3.7,21,17,14,29.97,29.85,8,0,14,0.00
2013-4-21,79.6,61.5,40.0,23.7,15.1,4.6,26,17,12,30.03,29.94,14,3,28,0.00
2013-4-22,81.6,64.0,48.1,24.1,15.8,-99.9,21,16,12,29.97,24.81,14,5,18,0.00
2013-4-23,71.6,59.8,47.0,19.9,15.2,8.6,26,18,14,29.91,29.80,8,-4,15,0.00
2013-4-24,77.5,64.6,44.1,22.8,16.3,5.5,20,16,13,29.91,29.83,14,1,25,0.00
2013-4-25,69.4,58.6,47.9,21.3,17.7,11.0,31,21,15,29.97,29.83,17,6,23,0.00
2013-4-26,78.1,60.4,43.0,28.7,20.4,12.3,40,23,13,30.09,29.97,13,0,17,0.00
2013-4-27,81.2,65.5,47.8,23.8,17.1,7.6,21,16,12,30.09,29.97,9,-11,28,0.00
2013-4-28,60.0,52.9,48.6,15.0,10.8,8.2,19,18,17,29.97,29.94,6,3,9,0.00
2013-4-29,87.6,77.7,59.8,30.7,23.5,14.4,17,13,11,29.88,29.80,12,-9,15,0.00
2013-4-30,84.2,72.4,59.0,28.6,19.8,14.3,17,14,11,29.85,29.80,19,8,26,0.00
2013-5-1,81.3,66.8,49.7,24.9,17.3,9.1,19,15,12,30.06,29.83,10,3,17,0.00
2013-5-2,72.6,57.5,39.2,20.7,12.9,2.5,21,17,14,30.18,30.06,12,4,32,0.00
2013-5-3,80.5,62.0,39.9,23.6,14.8,3.1,21,16,12,30.09,29.85,10,0,17,0.00
2013-5-4,77.5,65.0,47.8,22.8,16.6,7.5,19,15,13,29.85,29.77,15,6,24,0.00
2013-5-5,70.9,61.7,53.8,19.8,15.2,11.3,18,16,14,29.88,29.80,15,8,22,0.00
2013-5-6,66.1,57.2,47.8,34.1,25.5,9.2,43,30,17,29.91,29.83,14,8,23,0.00
2013-5-7,65.8,53.7,41.5,39.0,30.1,23.7,68,42,23,29.91,29.83,16,8,24,0.00
2013-5-8,70.8,55.5,37.4,30.2,23.2,17.7,55,31,17,29.97,29.85,9,4,15,0.00
2013-5-9,75.2,57.7,42.6,29.1,23.8,18.6,45,28,15,29.97,29.88,17,4,22,0.00
2013-5-10,79.0,61.0,41.8,32.9,25.5,19.8,52,29,13,30.06,29.94,8,2,13,0.00
2013-5-11,77.6,66.6,52.4,29.4,23.8,15.8,34,20,13,30.12,30.06,14,-2,19,0.00
2013-5-12,86.4,70.7,52.1,29.8,22.8,15.3,27,17,11,30.18,30.03,9,-4,13,0.00
2013-5-13,92.9,74.4,56.6,32.7,23.0,13.4,20,15,11,30.12,30.00,9,4,23,0.00
2013-5-14,89.0,73.7,58.3,31.8,22.2,14.3,19,15,11,30.03,29.94,12,1,17,0.00
2013-5-15,84.5,73.0,56.8,29.7,21.0,12.4,17,14,11,30.00,29.91,20,-4,26,0.00
2013-5-16,84.7,70.0,54.5,29.7,19.6,11.4,19,15,11,29.97,29.85,16,7,22,0.00
2013-5-17,77.5,66.5,57.1,22.9,17.8,-99.9,20,15,13,29.91,29.85,17,8,34,0.00
2013-5-18,77.8,64.8,47.9,30.7,20.5,-99.9,38,20,13,29.94,29.88,13,1,20,0.00
2013-5-19,80.7,67.2,50.4,29.1,22.1,-99.9,30,19,12,29.94,29.85,15,5,17,0.00
2013-5-20,74.4,66.8,47.3,23.4,18.7,13.0,29,16,13,29.94,24.75,9,-16,14,0.00
2013-5-21,85.6,68.8,46.5,29.7,21.3,11.3,30,17,11,29.97,29.85,12,-29,22,0.00
2013-5-22,82.8,65.4,55.8,24.9,16.8,11.7,17,15,11,29.85,29.80,14,-2,20,0.00
2013-5-24,80.7,72.9,59.5,28.5,20.5,14.3,17,14,12,29.97,24.81,15,1,24,0.00
2013-5-25,83.3,68.9,54.3,28.2,18.3,11.4,18,15,11,29.97,29.88,14,3,23,0.00
2013-5-26,80.0,67.4,52.0,24.2,17.7,9.8,18,15,12,29.97,29.88,13,6,24,0.00
2013-5-27,81.8,67.0,52.9,28.3,18.3,10.5,21,16,12,29.94,29.83,11,4,18,0.00
2013-5-28,81.2,67.6,53.3,28.4,21.5,11.3,26,17,13,29.83,29.71,15,6,21,0.00
2013-5-29,84.2,69.7,52.7,32.0,25.4,15.8,37,20,12,29.83,29.74,14,4,25,0.00
2013-5-30,87.5,72.0,56.3,37.5,28.3,-99.9,42,21,13,29.94,29.80,12,1,19,0.00
2013-5-31,90.4,75.7,57.2,39.7,31.5,22.7,44,22,12,29.97,29.88,8,3,11,0.00
2013-6-1,95.3,77.9,58.4,32.9,24.1,13.8,23,14,11,30.00,29.91,8,3,12,0.00
2013-6-2,94.0,79.8,63.0,33.0,25.5,16.6,18,14,11,29.94,29.85,15,6,23,0.00
2013-6-3,90.2,76.4,61.0,32.1,24.1,16.0,19,14,11,29.94,29.85,12,6,21,0.00
2013-6-4,90.5,76.1,60.7,32.0,22.8,14.3,17,14,11,29.97,29.91,13,6,17,0.00
2013-6-5,70.3,61.7,59.2,19.5,15.4,14.3,17,16,14,29.94,29.94,5,3,6,0.00
2013-6-15,92.8,81.8,67.9,32.8,25.8,18.5,15,13,11,30.00,29.94,14,6,18,0.00
2013-6-16,94.9,82.0,64.8,32.6,25.7,16.1,15,13,11,30.06,29.97,13,6,24,0.00
2013-6-17,94.3,78.0,61.7,32.9,23.7,15.1,16,13,11,30.06,29.94,12,5,22,0.00
2013-6-18,92.7,77.4,59.9,32.7,23.6,14.3,17,14,10,30.00,29.88,16,6,23,0.00
2013-6-19,91.4,77.6,59.2,32.1,23.3,14.3,17,13,11,29.91,29.83,14,6,20,0.00
2013-6-20,90.7,76.6,59.1,32.1,22.9,14.3,17,14,11,29.94,29.85,14,6,22,0.00
2013-6-21,90.6,76.5,60.6,32.1,23.3,14.3,19,14,11,29.97,24.78,14,6,20,0.00
2013-6-22,91.0,76.2,58.5,32.2,23.0,13.8,17,14,11,29.97,29.88,11,1,19,0.00
2013-6-23,88.7,76.0,61.3,31.6,22.7,14.7,16,14,11,29.91,29.83,17,7,26,0.00
2013-6-24,87.6,74.7,63.3,30.5,22.0,15.8,18,14,11,29.94,29.83,14,7,20,0.00
2013-6-25,90.9,76.6,59.7,32.1,24.2,14.4,19,14,11,30.03,29.94,10,4,14,0.00
2013-6-26,95.2,79.7,60.6,32.9,24.7,14.4,17,13,11,30.12,30.03,11,1,17,0.00
2013-6-27,102.2,83.4,63.9,35.2,27.7,16.8,24,14,9,30.18,30.06,10,0,13,0.00
2013-6-28,107.2,85.3,72.6,36.5,27.8,19.6,16,13,9,30.12,30.00,20,3,24,0.00
2013-6-29,104.4,87.3,73.3,35.3,29.2,21.3,18,13,9,30.09,29.97,12,-14,18,0.00
2013-6-30,105.8,84.5,73.6,38.5,29.3,24.4,20,14,9,30.03,29.94,14,3,18,0.00
2013-7-1,100.2,83.3,68.7,43.6,36.5,25.7,33,20,10,30.09,29.97,16,0,20,0.00
2013-7-2,99.0,80.1,70.4,46.8,39.8,31.1,38,25,10,30.12,30.00,18,-2,24,0.00
2013-7-3,98.9,79.2,66.6,47.5,38.4,32.2,39,24,10,30.06,29.94,12,4,19,0.00
2013-7-4,97.6,84.2,70.1,38.4,33.7,29.0,27,17,11,30.00,29.88,14,5,20,0.00
2013-7-5,92.4,80.1,71.4,44.5,39.0,34.4,34,24,14,30.03,29.91,15,2,20,0.00
2013-7-6,93.7,76.3,67.5,56.4,43.1,35.8,52,32,16,30.00,29.91,18,-1,20,0.08
2013-7-7,96.0,79.5,64.8,51.8,40.6,27.9,47,28,11,30.03,29.91,9,-1,13,0.05
2013-7-8,99.6,84.0,69.5,43.6,33.5,24.6,33,18,10,30.09,29.97,14,-9,17,0.00
2013-7-9,100.4,83.6,68.7,46.3,32.3,22.2,33,17,10,30.18,30.03,11,4,14,0.00
2013-7-10,98.9,80.0,72.7,55.4,44.0,31.8,52,30,10,30.12,30.00,12,4,17,0.00
2013-7-11,84.2,74.1,66.8,61.5,52.1,47.5,67,47,30,30.09,30.00,13,0,18,0.04
2013-7-12,85.0,71.1,62.4,60.4,53.0,47.2,72,55,29,30.09,30.00,8,3,14,0.04
2013-7-13,90.5,75.2,63.4,57.3,48.8,39.5,69,43,20,30.12,30.03,12,2,13,0.00
2013-7-14,93.8,78.4,68.4,49.9,43.5,35.8,46,31,14,30.09,30.00,13,2,16,0.00
2013-7-15,95.1,76.0,66.7,49.4,44.2,35.9,46,34,14,30.03,29.97,12,3,17,0.00
2013-7-16,82.0,72.3,65.1,59.7,50.7,46.0,80,49,30,30.09,29.97,11,-1,15,0.12
2013-7-17,87.4,72.2,62.1,60.6,54.2,45.1,81,56,23,30.18,30.06,10,-3,17,0.17
2013-7-18,89.3,78.0,67.9,55.7,49.3,41.6,57,37,25,30.12,30.03,8,3,14,0.04
2013-7-19,90.1,75.5,67.6,59.2,50.7,41.2,69,44,18,30.09,29.97,8,0,12,0.41
2013-7-20,86.8,71.9,64.2,60.9,54.6,48.7,82,57,30,30.06,29.94,14,-1,17,0.34
2013-7-21,80.5,70.2,63.5,64.3,58.3,52.5,88,68,40,30.06,29.94,10,3,13,0.00
2013-7-22,82.0,72.0,64.4,61.7,55.9,46.3,84,60,30,30.09,30.00,9,2,14,0.00
2013-7-23,86.8,74.6,64.2,58.6,52.6,47.2,72,49,28,30.12,30.03,9,2,11,0.00
2013-7-24,92.6,78.3,65.3,57.3,49.1,41.7,67,39,18,30.09,30.00,11,-2,17,0.00
2013-7-25,91.0,74.5,68.2,61.5,55.2,50.0,70,53,26,30.15,30.03,11,-1,13,0.49
2013-7-26,83.7,72.4,65.1,61.3,53.8,42.2,73,55,29,30.21,30.12,18,3,28,0.00
2013-7-27,87.1,74.1,63.2,57.1,52.2,48.0,75,49,27,30.15,30.00,10,-1,17,0.00
2013-7-28,89.2,74.9,62.3,56.4,47.9,36.8,73,43,18,30.03,29.94,12,4,17,0.09
2013-7-29,88.8,76.7,64.4,47.5,39.0,28.8,48,28,13,30.15,30.00,9,4,12,0.00
2013-7-30,92.4,76.8,63.8,45.3,38.0,31.6,37,26,12,30.24,30.12,11,-1,22,0.08
2013-7-31,95.8,79.6,65.1,44.9,36.9,-99.9,38,24,11,30.21,30.09,8,-1,10,0.00
2013-8-1,89.2,77.2,69.6,57.1,45.0,39.3,52,33,19,30.12,30.03,10,-4,16,0.46
2013-8-2,90.9,78.5,67.3,51.2,41.8,30.3,55,30,12,30.09,30.03,11,4,15,0.00
2013-8-3,92.7,79.3,66.6,52.5,41.1,28.9,59,30,12,30.12,30.03,10,1,20,0.00
2013-8-4,92.0,78.2,68.2,49.0,37.1,28.7,37,24,12,30.18,30.06,12,3,15,0.00
2013-8-5,90.6,77.1,64.4,37.1,31.8,26.2,32,20,12,30.12,30.03,15,0,20,0.00
2013-8-6,75.9,70.1,65.9,51.1,45.8,33.7,58,43,24,30.12,30.03,10,2,12,0.08
2013-8-7,88.5,74.5,61.9,53.8,40.0,26.3,68,34,13,30.12,30.00,10,3,13,0.00
2013-8-8,90.6,75.7,60.3,34.5,27.0,18.5,33,18,11,30.06,29.97,11,-11,20,0.00
2013-8-9,88.9,76.2,60.8,31.7,24.7,15.9,19,15,12,30.06,29.97,16,1,24,0.00
2013-8-10,88.1,76.0,63.2,31.1,24.4,17.8,18,15,12,30.12,30.03,13,5,20,0.00
2013-8-11,90.6,77.8,66.0,35.6,29.5,18.2,29,18,12,30.09,29.97,11,1,17,0.00
2013-8-12,93.6,79.4,65.8,43.2,32.6,20.9,36,20,11,30.09,30.00,11,-3,20,0.00
2013-8-13,92.8,78.5,63.9,32.8,26.4,18.5,23,15,11,30.12,30.00,12,4,15,0.00
2013-8-14,97.3,82.9,68.2,34.0,27.5,18.5,18,13,11,30.12,30.00,11,3,16,0.00
2013-8-15,91.7,77.8,66.6,50.4,39.5,27.9,56,28,12,30.12,30.06,9,3,13,0.04
2013-8-16,96.6,81.0,69.4,43.1,34.4,27.5,33,20,11,30.15,30.06,10,3,13,0.00
2013-8-17,95.6,77.1,66.0,49.3,39.4,30.4,56,28,11,30.15,30.03,13,4,20,0.00
2013-8-18,92.9,77.7,64.9,48.8,40.0,30.7,55,28,12,30.12,30.03,13,0,17,0.00
2013-8-19,96.2,75.6,64.4,48.3,41.5,31.0,51,32,11,30.12,30.03,14,-5,27,0.00
2013-8-20,92.9,78.5,65.2,50.4,37.4,-99.9,51,25,11,30.09,29.97,12,3,16,0.17
2013-8-21,78.4,71.3,66.4,53.8,45.8,-99.9,63,41,25,30.12,30.00,9,-1,14,0.04
2013-8-22,86.9,73.9,64.4,52.4,45.4,36.2,61,39,19,30.09,30.00,11,2,13,0.00
2013-8-23,86.2,73.6,61.2,52.1,42.0,32.0,72,36,16,30.06,29.94,11,-1,14,0.00
2013-8-24,76.8,68.3,63.5,58.0,47.2,38.6,80,49,31,30.09,30.00,12,4,15,0.08
2013-8-25,69.2,65.7,62.2,61.0,56.4,45.5,93,73,46,30.12,30.03,8,-5,11,0.54
2013-8-26,81.9,69.9,61.5,62.5,55.8,48.6,90,64,32,30.12,30.00,14,3,20,0.04
2013-8-27,86.8,72.5,63.3,62.4,49.8,-99.9,87,52,19,30.06,30.00,11,-1,15,0.05
2013-8-28,86.6,72.4,65.5,55.0,44.0,-99.9,68,41,19,30.12,30.00,11,2,14,0.24
2013-8-29,83.1,72.4,61.8,60.3,53.5,48.7,87,53,32,30.18,30.09,10,2,22,0.96
2013-8-30,79.6,68.6,63.1,64.6,60.2,-99.9,93,77,45,30.18,24.95,5,-2,8,0.45
2013-8-31,77.4,69.2,64.8,65.5,57.6,49.1,92,68,42,30.12,30.03,9,2,12,0.00
2013-9-1,87.0,72.5,62.5,60.3,54.7,48.9,79,57,28,30.09,30.00,7,2,10,0.08
2013-9-2,87.3,78.1,63.9,58.2,46.8,-99.9,68,35,19,30.12,24.89,11,-12,20,0.00
2013-9-3,90.3,76.0,65.7,52.2,45.1,37.3,55,36,17,30.12,30.03,9,2,19,0.00
2013-9-4,91.6,76.7,66.4,51.2,44.3,35.0,56,35,14,30.15,30.06,9,3,15,0.00
2013-9-5,90.2,77.1,63.5,51.8,39.1,28.0,56,30,12,30.15,30.06,8,3,14,0.00
2013-9-6,92.2,78.2,67.5,52.2,38.3,30.1,57,26,12,30.15,30.03,11,4,15,0.00
2013-9-7,83.7,72.2,63.0,53.0,47.6,38.1,62,43,21,30.12,30.03,9,2,12,0.00
2013-9-8,72.4,65.8,61.9,59.3,54.9,51.5,90,68,50,30.03,29.91,8,2,13,0.50
2013-9-9,64.4,61.7,57.4,60.1,55.1,49.7,92,79,66,29.94,29.85,7,1,10,0.46
2013-9-10,67.5,60.7,56.2,60.2,54.8,49.8,97,81,55,29.97,29.85,9,3,14,0.20
2013-9-11,59.2,59.1,58.6,58.9,58.3,57.2,99,98,94,29.97,29.97,4,-20,6,0.05
2013-9-14,83.2,73.5,63.3,45.9,39.6,34.9,43,31,19,29.94,24.78,7,-26,9,0.00
2013-9-15,84.9,71.0,58.1,47.9,40.2,31.9,57,35,16,30.00,24.81,7,-2,9,0.00
2013-9-16,87.6,74.8,63.5,46.9,37.4,-99.9,45,28,13,30.06,29.97,9,3,11,0.00
2013-9-17,85.3,74.1,65.5,48.6,43.1,-99.9,50,34,20,30.00,29.88,12,1,18,0.00
2013-9-18,84.0,72.5,63.9,38.4,29.6,18.8,34,22,12,29.94,29.85,15,-3,20,0.00
2013-9-19,83.0,70.5,58.4,32.3,25.7,19.1,29,19,12,29.97,29.88,11,4,17,0.00
2013-9-20,85.6,72.2,60.1,36.9,28.5,18.9,34,21,13,30.00,24.83,12,-8,14,0.00
2013-9-21,81.5,71.3,62.8,42.4,37.2,32.6,37,29,20,30.00,29.83,13,-2,17,0.00
2013-9-22,73.1,64.8,54.1,41.7,25.3,12.9,43,24,14,29.85,29.74,21,-7,26,0.00
2013-9-23,77.9,62.7,47.8,29.6,22.3,17.4,38,22,13,30.00,29.85,7,-13,10,0.00
2013-9-24,80.4,66.9,55.8,30.1,23.5,18.5,26,20,13,30.03,29.91,10,4,16,0.00
2013-9-25,76.8,66.2,55.9,32.0,25.3,19.4,31,22,15,29.91,29.77,14,-4,22,0.00
2013-9-26,73.5,63.2,55.2,33.0,25.2,14.8,40,24,16,29.77,29.71,22,-6,33,0.00
2013-9-27,66.2,56.2,45.6,17.8,14.3,-99.9,30,19,15,29.97,29.77,6,-1,10,0.00
2013-9-28,72.9,57.3,41.0,21.2,15.1,6.4,30,20,14,30.09,29.97,6,-24,8,0.00
2013-9-29,79.1,63.7,48.9,28.5,19.8,-99.9,29,19,15,30.12,30.03,10,-8,12,0.00
2013-9-30,80.3,64.1,49.8,28.5,20.4,14.6,29,19,12,30.03,29.94,8,-15,10,0.00
2013-10-1,79.1,63.9,51.1,27.3,21.2,16.0,27,20,12,30.03,29.94,10,-8,14,0.00
2013-10-2,76.0,63.4,51.1,32.5,24.4,18.5,40,24,13,30.00,29.91,12,-10,17,0.00
2013-10-3,75.4,63.5,51.4,34.2,25.4,18.6,38,25,13,29.91,29.80,15,-13,18,0.00
2013-10-4,66.0,53.9,40.7,20.3,14.0,9.4,29,21,15,30.03,29.83,10,-8,17,0.00
2013-10-5,66.4,54.8,40.2,17.4,11.4,3.4,21,18,15,30.12,30.03,10,-10,18,0.00
2013-10-6,75.4,58.0,39.3,21.2,13.3,4.5,23,17,13,30.15,30.06,6,-26,10,0.00
2013-10-7,76.7,62.2,46.1,22.2,15.2,6.5,20,16,13,30.06,29.94,10,-4,15,0.00
2013-10-8,74.9,62.8,53.2,21.4,16.6,10.9,25,17,13,29.94,29.77,13,-6,22,0.00
2013-10-9,64.3,57.2,51.6,32.5,23.0,-99.9,44,28,18,29.77,29.68,20,-4,32,0.30
2013-10-10,52.2,46.1,37.6,39.2,28.5,24.2,72,51,36,29.88,29.65,13,1,18,0.25
2013-10-11,63.3,48.8,34.6,36.3,27.9,24.0,81,48,23,29.94,29.85,5,-12,7,0.00
2013-10-12,67.8,53.9,40.6,31.3,23.1,-99.9,48,33,17,29.94,29.88,11,-15,15,0.00
2013-10-13,66.2,55.8,45.8,27.0,21.7,-99.9,42,28,18,29.94,29.85,14,-16,26,0.00
2013-10-14,64.5,52.1,37.2,24.4,16.8,-99.9,45,27,15,30.00,29.91,5,-9,10,0.00
2013-10-15,66.4,49.8,38.3,24.3,11.7,-99.9,41,25,15,29.94,29.85,9,-9,11,0.00
2013-10-16,63.7,48.7,37.2,22.9,11.9,-99.9,43,26,16,30.03,29.91,6,-24,8,0.00
2013-10-17,67.1,52.5,36.9,19.4,13.9,8.4,30,22,15,30.00,29.88,5,-9,7,0.00
2013-10-18,68.2,54.1,38.9,19.5,13.1,6.4,29,20,15,30.00,29.91,6,-27,9,0.00
2013-10-19,69.7,54.8,37.2,20.0,12.1,3.6,27,18,14,30.03,29.97,5,-16,6,0.00
2013-10-20,71.4,54.9,37.8,20.0,11.6,1.4,24,18,14,29.97,29.88,5,-49,8,0.00
2013-10-21,70.6,57.1,39.4,20.0,12.6,2.7,21,17,14,30.03,29.91,6,-52,11,0.00
2013-10-22,73.0,60.0,45.5,21.1,14.0,-99.9,22,17,14,30.06,30.00,7,-29,10,0.00
2013-10-23,74.7,65.0,47.8,21.1,16.6,7.5,19,15,13,30.00,29.94,10,4,15,0.00
2013-10-24,72.7,61.3,50.3,22.9,15.4,9.6,20,17,14,30.00,29.91,14,-7,18,0.00
2013-10-25,69.1,57.2,44.8,19.5,13.3,6.1,24,18,15,30.06,29.97,6,-5,10,0.00
2013-10-26,72.3,59.1,45.5,30.9,20.6,13.9,38,24,15,30.12,30.03,7,-11,13,0.00
2013-10-27,76.7,59.5,48.1,30.1,19.0,12.5,33,21,14,30.03,29.77,14,1,19,0.00
2013-10-28,63.4,56.5,50.6,34.9,19.2,13.5,54,24,18,29.80,29.71,18,0,26,0.00
2013-10-29,54.1,47.0,37.1,35.1,26.6,20.0,67,46,27,29.85,29.74,16,3,28,0.00
2013-10-30,55.9,43.4,35.6,26.1,19.2,10.8,63,40,23,29.94,29.80,5,-2,9,0.00
2013-10-31,62.3,44.8,31.1,25.1,14.2,7.1,51,31,17,30.03,29.94,4,-31,10,0.04
2013-11-1,69.8,49.1,33.1,26.1,14.1,8.1,42,26,16,30.09,30.00,7,-9,8,0.00
2013-11-2,72.4,54.9,39.0,21.7,13.0,5.1,29,19,14,30.03,29.85,14,1,19,0.00
2013-11-3,68.9,54.0,43.0,20.3,13.9,7.1,29,21,15,29.85,29.77,11,-17,17,0.00
2013-11-4,64.0,50.8,40.2,31.3,15.9,10.1,62,26,18,29.80,29.71,13,1,21,0.00
2013-11-5,59.2,43.4,32.8,28.7,16.3,1.3,66,36,18,30.06,29.77,6,-28,8,0.00
2013-11-6,62.6,44.5,26.1,16.1,8.5,2.7,32,23,16,30.18,30.06,7,-5,10,0.00
2013-11-7,71.2,51.5,34.6,19.6,9.5,-0.3,22,18,14,30.18,30.03,8,3,11,0.00
2013-11-8,78.5,53.9,43.2,23.6,12.2,4.8,27,19,13,30.06,29.97,6,-1,11,0.00
2013-11-9,82.2,54.4,41.8,29.3,16.8,12.3,32,23,12,30.09,29.97,5,-1,9,0.00
2013-11-10,67.0,54.6,42.8,27.9,22.1,17.3,39,29,20,30.12,30.03,6,2,7,0.00
2013-11-11,75.3,58.2,41.5,29.8,19.2,14.3,40,24,14,30.15,30.03,9,-4,15,0.04
2013-11-12,73.6,59.3,45.5,21.2,13.9,6.5,20,17,13,30.21,30.12,7,-8,10,0.00
2013-11-13,69.1,58.6,48.1,24.4,19.6,13.7,33,22,17,30.15,30.00,7,2,15,0.00
2013-11-14,67.6,53.3,40.3,25.6,20.5,15.8,40,29,15,30.00,29.80,6,-5,12,0.00
2013-11-15,61.1,52.2,44.5,40.9,30.2,18.3,83,44,26,29.83,29.62,15,-26,22,0.25
2013-11-16,56.0,48.1,40.9,46.0,36.8,28.0,100,68,37,29.80,29.65,13,6,22,0.00
2013-11-17,54.8,46.4,39.7,38.1,31.8,26.0,83,59,35,30.00,29.80,12,2,18,0.00
2013-11-18,62.5,50.2,39.4,38.7,29.1,19.5,75,46,25,30.03,29.94,8,0,12,0.00
2013-11-19,63.0,52.7,44.2,35.4,32.0,25.8,65,47,25,29.97,29.83,10,4,13,0.00
2013-11-20,53.5,48.8,43.0,40.3,36.9,32.0,72,64,50,29.83,29.77,10,0,13,0.00
2013-11-21,51.4,47.8,42.8,40.9,36.7,32.2,80,65,54,29.85,29.77,11,3,16,0.13
2013-11-22,46.4,42.3,39.9,41.7,37.8,34.9,100,84,76,29.85,29.77,10,-36,13,1.08
2013-11-23,42.3,39.6,37.2,41.7,34.4,29.4,100,82,69,29.94,29.80,14,-8,20,0.37
2013-11-24,45.1,37.9,32.4,36.2,31.4,26.3,88,78,61,30.00,29.88,6,2,11,0.04
2013-11-25,50.7,38.8,30.0,35.6,28.7,22.3,100,70,38,30.09,29.94,5,-1,6,0.00
2013-11-26,55.4,42.5,32.5,26.7,21.5,16.0,65,45,23,30.15,30.06,8,-1,11,0.00
2013-11-27,53.3,45.3,39.8,23.1,15.8,12.2,49,31,21,30.09,29.91,12,2,20,0.00
2013-11-28,55.8,43.8,31.9,22.6,17.2,13.4,48,35,23,30.03,29.88,10,-8,16,0.00
2013-11-29,56.8,45.0,35.1,26.9,20.6,15.8,51,39,26,30.09,30.00,11,-13,14,0.00
2013-11-30,58.3,48.2,33.4,30.4,24.5,20.8,72,41,22,30.09,24.95,6,-9,9,0.00
2013-12-1,53.5,41.0,32.9,29.5,24.2,17.3,75,52,35,30.15,30.06,6,-5,8,0.00
2013-12-2,61.2,44.5,34.7,21.3,17.1,12.5,49,34,16,30.06,24.83,6,-3,6,0.00
2013-12-3,52.6,45.2,38.1,25.3,19.8,11.9,45,36,30,29.83,29.62,16,4,21,0.00
2013-12-4,46.2,37.1,26.2,34.5,24.9,13.8,87,61,42,29.77,29.56,16,5,20,0.04
2013-12-5,37.9,28.1,20.7,17.0,9.0,3.7,60,43,24,29.85,29.68,9,-2,10,0.00
2013-12-6,37.6,27.0,16.3,8.7,3.6,0.0,44,35,21,29.97,29.83,7,-1,9,0.00
2013-12-7,37.1,29.8,21.2,26.8,13.9,4.7,79,51,39,29.85,29.74,15,8,24,0.00
2013-12-8,41.1,32.3,21.7,31.3,20.1,9.0,96,61,40,29.88,29.74,11,-4,14,0.09
2013-12-9,36.0,24.0,12.0,8.5,2.1,-2.7,53,38,22,30.06,29.85,7,-1,10,0.00
2013-12-11,40.5,35.0,29.9,8.4,6.4,4.2,34,30,23,30.12,30.09,4,-13,4,0.00
2013-12-12,54.8,38.8,27.5,21.5,16.0,7.8,50,39,26,30.12,29.97,7,-16,11,0.00
2013-12-13,52.5,40.8,30.0,26.3,19.6,11.4,64,44,26,30.03,29.91,6,-16,10,0.00
2013-12-14,50.9,36.2,25.3,17.2,10.8,1.4,50,35,21,30.18,30.03,5,-10,9,0.00
2013-12-15,57.6,46.4,31.2,16.4,11.9,7.7,36,25,19,30.21,30.12,7,-74,9,0.00
2013-12-16,61.9,45.3,33.4,20.5,12.0,4.8,36,27,16,30.18,30.09,5,-52,6,0.00
2013-12-17,60.8,45.7,32.7,21.2,11.6,6.4,39,26,16,30.15,30.06,4,-54,5,0.00
2013-12-18,63.5,50.5,39.8,21.2,12.5,4.5,28,22,16,30.06,29.77,11,-29,13,0.00
2013-12-19,49.6,43.8,35.6,31.5,20.9,15.5,83,43,27,29.74,29.59,17,-48,23,0.41
2013-12-20,41.7,35.8,33.1,34.4,26.7,-99.9,91,74,59,29.68,29.56,6,-24,7,0.13
2013-12-21,44.1,35.1,30.7,30.3,23.4,17.4,79,62,38,29.85,29.62,8,-5,10,0.00
2013-12-22,45.4,35.5,25.7,23.7,17.3,-99.9,65,48,27,30.09,29.85,6,-42,10,0.00
2013-12-23,49.5,36.6,25.9,19.9,15.3,12.5,54,41,27,30.21,30.09,6,-38,7,0.00
2013-12-24,54.7,39.6,28.0,21.1,16.2,13.3,52,39,20,30.12,30.00,6,-63,8,0.00
2013-12-25,53.7,38.0,25.1,17.5,10.2,-1.1,51,33,18,30.12,30.06,8,-20,11,0.00
2013-12-26,54.0,39.8,24.8,13.1,6.2,0.3,35,24,18,30.12,30.03,5,-23,9,0.00
2013-12-27,58.4,45.4,31.7,15.4,7.9,-1.2,29,22,17,30.15,24.95,7,-27,11,0.00
2013-12-28,54.7,42.0,33.4,18.9,12.2,7.0,40,30,20,30.03,29.85,4,-19,6,0.00
2013-12-29,50.8,37.7,27.2,16.9,10.0,1.1,45,32,19,30.03,29.85,8,-4,11,0.00
2013-12-30,53.2,37.6,23.2,10.8,5.7,0.6,33,25,18,30.12,30.00,6,-23,7,0.00
2013-12-31,58.8,44.2,33.7,18.6,10.9,7.7,35,26,17,30.12,30.00,7,-79,8,0.00
2014-1-1,58.3,45.0,32.6,16.2,10.4,4.9,34,25,19,30.06,29.97,9,-44,14,0.00
2014-1-2,59.7,43.7,30.9,14.8,7.7,0.9,30,22,17,30.09,30.00,5,-23,7,0.00